Time;durP1;ratioP1;P1;durP2;ratioP2;P2;SDS_P1;SDS_P2;PMS_P1;PMS_P2;Temp;Humidity;BMP_temperature;BMP_pressure;BME280_temperature;BME280_humidity;BME280_pressure;Samples;Min_cycle;Max_cycle;Signal;HPM_P1;HPM_P2
2022/11/29 00:00:32;;;;;;;;;8.25;6.75;;;;;9.60;72.66;100729.16;4900386;29;45244;-60
2022/11/29 00:02:58;;;;;;;;;8.00;7.00;;;;;9.69;72.61;100751.75;4900519;29;45391;-60
2022/11/29 00:05:23;;;;;;;;;10.75;6.50;;;;;9.52;73.23;100754.00;4899912;29;46599;-60
2022/11/29 00:07:49;;;;;;;;;10.50;8.00;;;;;9.61;72.89;100771.94;4900067;29;45311;-60
2022/11/29 00:10:14;;;;;;;;;5.25;5.00;;;;;9.70;72.96;100778.09;4899723;29;45312;-60
2022/11/29 00:12:40;;;;;;;;;7.00;6.00;;;;;9.61;73.03;100766.47;4900230;29;45374;-60
2022/11/29 00:15:06;;;;;;;;;6.25;4.00;;;;;9.54;72.50;100767.50;4899862;29;45626;-60
2022/11/29 00:17:31;;;;;;;;;9.00;9.00;;;;;9.54;73.58;100776.56;4898636;29;45891;-60
2022/11/29 00:19:56;;;;;;;;;7.00;6.00;;;;;9.28;73.50;100733.47;4900259;29;45486;-60
2022/11/29 00:22:24;;;;;;;;;4.50;4.50;;;;;9.54;73.72;100778.47;4900108;29;45414;-60
2022/11/29 00:24:50;;;;;;;;;6.20;6.20;;;;;9.56;73.57;100779.91;4899446;29;47489;-60
2022/11/29 00:27:15;;;;;;;;;9.00;8.60;;;;;9.41;74.61;100774.59;4899951;29;45350;-60
2022/11/29 00:29:41;;;;;;;;;9.50;8.00;;;;;9.41;73.32;100782.81;4820627;28;45433;-61
2022/11/29 00:32:06;;;;;;;;;8.00;6.75;;;;;9.12;74.31;100740.94;4862493;29;45289;-61
2022/11/29 00:34:32;;;;;;;;;4.00;4.00;;;;;9.47;74.41;100782.00;4861629;29;45908;-61
2022/11/29 00:36:57;;;;;;;;;7.50;5.50;;;;;9.30;73.14;100758.75;4862260;29;45200;-60
2022/11/29 00:39:23;;;;;;;;;8.00;6.00;;;;;9.55;73.87;100788.38;4861883;29;45368;-61
2022/11/29 00:41:48;;;;;;;;;5.50;5.50;;;;;9.54;73.52;100786.69;4862247;29;45292;-61
2022/11/29 00:44:14;;;;;;;;;6.00;3.25;;;;;9.55;73.59;100786.47;4861913;29;45708;-60
2022/11/29 00:46:39;;;;;;;;;3.25;3.25;;;;;9.55;73.42;100778.22;4862210;29;45357;-61
2022/11/29 00:49:05;;;;;;;;;6.25;3.75;;;;;9.33;73.86;100740.00;4861936;29;45408;-60
2022/11/29 00:51:30;;;;;;;;;6.75;3.75;;;;;9.63;73.84;100786.31;4860826;29;45344;-60
2022/11/29 00:53:56;;;;;;;;;8.25;6.25;;;;;9.65;74.14;100793.47;4861680;29;46305;-60
2022/11/29 00:56:21;;;;;;;;;7.00;4.50;;;;;9.66;73.99;100789.66;4845225;29;45449;-60
2022/11/29 00:58:48;;;;;;;;;6.75;4.50;;;;;9.49;72.80;100765.34;4861844;29;45404;-60
2022/11/29 01:01:13;;;;;;;;;8.40;4.80;;;;;9.66;73.81;100795.97;4887174;29;45437;-60
2022/11/29 01:03:39;;;;;;;;;6.00;5.50;;;;;9.66;72.60;100784.19;4898933;29;45579;-59
2022/11/29 01:06:11;;;;;;;;;2.50;2.50;;;;;9.59;73.67;100776.78;4882261;29;45304;-61
2022/11/29 01:08:37;;;;;;;;;5.60;5.20;;;;;9.61;73.19;100785.63;4899352;29;45450;-59
2022/11/29 01:11:04;;;;;;;;;3.00;3.00;;;;;9.56;73.56;100779.09;4899425;29;45414;-59
2022/11/29 01:13:29;;;;;;;;;6.00;2.20;;;;;9.47;73.26;100792.13;4881938;29;46175;-60
2022/11/29 01:15:56;;;;;;;;;3.75;3.50;;;;;9.44;73.77;100793.38;4898816;29;45496;-59
2022/11/29 01:18:21;;;;;;;;;3.60;3.60;;;;;9.40;74.79;100793.97;4899382;29;45696;-59
2022/11/29 01:20:57;;;;;;;;;4.00;4.00;;;;;9.40;74.70;100791.25;4899404;29;45492;-59
2022/11/29 01:23:23;;;;;;;;;5.40;3.80;;;;;9.07;74.94;100755.25;4882035;29;46006;-60
2022/11/29 01:25:56;;;;;;;;;6.25;3.00;;;;;9.06;74.06;100759.03;4882089;29;45372;-60
2022/11/29 01:28:22;;;;;;;;;3.00;2.80;;;;;9.25;74.04;100783.16;4898764;29;45180;-59
2022/11/29 01:30:47;;;;;;;;;6.25;3.50;;;;;9.33;74.10;100797.53;4899506;29;45521;-60
2022/11/29 01:33:13;;;;;;;;;3.50;3.50;;;;;9.36;74.45;100804.50;4869679;28;45501;-60
2022/11/29 01:35:38;;;;;;;;;3.00;1.75;;;;;9.39;74.08;100804.06;4898709;29;45335;-60
2022/11/29 01:38:04;;;;;;;;;5.00;5.00;;;;;9.44;73.90;100800.75;4898517;29;45568;-59
2022/11/29 01:40:29;;;;;;;;;3.00;3.00;;;;;9.42;73.77;100805.56;4881689;29;45422;-60
2022/11/29 01:42:54;;;;;;;;;4.25;2.75;;;;;9.48;74.05;100808.34;4881802;29;45365;-60
2022/11/29 01:45:24;;;;;;;;;6.00;4.00;;;;;9.05;74.08;100740.06;4898209;29;45392;-60
2022/11/29 01:47:51;;;;;;;;;4.00;3.00;;;;;9.52;74.05;100818.91;4898711;29;45442;-60
2022/11/29 01:50:17;;;;;;;;;3.80;3.80;;;;;9.39;74.28;100795.88;4898551;29;45497;-61
2022/11/29 01:52:42;;;;;;;;;3.75;3.00;;;;;9.52;74.44;100822.50;4881292;29;46818;-61
2022/11/29 01:55:08;;;;;;;;;5.50;2.25;;;;;9.30;73.74;100792.47;4897891;29;45366;-60
2022/11/29 01:57:34;;;;;;;;;3.20;3.00;;;;;9.53;73.56;100824.19;4881847;29;45335;-60
2022/11/29 02:00:05;;;;;;;;;7.00;4.50;;;;;9.48;73.67;100818.47;4881129;29;45488;-60
2022/11/29 02:02:33;;;;;;;;;5.20;4.40;;;;;9.51;73.54;100834.50;4881622;29;47131;-60
2022/11/29 02:04:58;;;;;;;;;6.60;6.20;;;;;9.51;74.47;100826.28;4850282;29;45403;-60
2022/11/29 02:07:24;;;;;;;;;3.25;3.25;;;;;9.60;73.62;100835.16;4865697;29;45453;-60
2022/11/29 02:09:49;;;;;;;;;5.00;5.00;;;;;9.60;73.92;100830.53;4881596;29;45305;-60
2022/11/29 02:12:46;;;;;;;;;2.50;2.50;;;;;9.62;73.39;100833.09;4898056;29;46425;-61
2022/11/29 02:15:21;;;;;;;;;3.80;3.80;;;;;9.64;74.00;100839.19;4898188;29;45502;-61
2022/11/29 02:18:06;;;;;;;;;5.20;4.80;;;;;9.65;73.58;100843.63;4881327;29;45330;-61
2022/11/29 02:21:00;;;;;;;;;4.20;2.80;;;;;9.66;74.02;100844.47;4881045;29;45357;-61
2022/11/29 02:23:49;;;;;;;;;8.40;4.80;;;;;9.63;73.01;100841.13;4898019;29;46631;-60
2022/11/29 02:26:41;;;;;;;;;3.60;3.60;;;;;9.58;73.28;100843.59;4898260;29;45494;-61
2022/11/29 02:29:13;;;;;;;;;4.00;4.00;;;;;9.59;73.76;100831.59;4881548;29;45410;-61
2022/11/29 02:31:55;;;;;;;;;3.00;3.00;;;;;9.03;73.13;100734.78;4898428;29;45510;-61
2022/11/29 02:35:18;;;;;;;;;3.80;2.80;;;;;9.63;73.29;100837.50;4880676;29;46801;-61
2022/11/29 02:38:17;;;;;;;;;1.60;1.60;;;;;9.71;73.50;100842.00;4784735;29;45416;-61
2022/11/29 02:41:13;;;;;;;;;5.60;2.60;;;;;9.74;72.47;100852.53;4787946;29;45414;-61
2022/11/29 02:43:50;;;;;;;;;3.60;3.40;;;;;9.72;72.63;100849.97;4845129;29;45577;-60
2022/11/29 02:46:22;;;;;;;;;6.40;6.00;;;;;9.71;73.25;100851.03;4844698;29;46761;-61
2022/11/29 02:49:12;;;;;;;;;8.20;4.40;;;;;9.73;72.89;100853.59;4843923;29;45394;-61
2022/11/29 02:51:48;;;;;;;;;3.00;3.00;;;;;9.77;72.70;100858.44;4844903;29;45327;-60
2022/11/29 02:54:41;;;;;;;;;3.00;3.00;;;;;9.79;73.23;100858.25;4845117;29;45342;-61
2022/11/29 02:57:27;;;;;;;;;2.20;2.20;;;;;9.81;72.93;100855.31;4843646;29;46265;-60
2022/11/29 03:00:08;;;;;;;;;3.20;2.80;;;;;9.50;73.18;100808.13;4827910;29;45521;-60
2022/11/29 03:02:54;;;;;;;;;6.80;4.80;;;;;9.77;73.07;100850.22;4864499;29;45325;-60
2022/11/29 03:05:37;;;;;;;;;5.60;5.60;;;;;9.39;72.75;100784.91;4880835;29;45618;-60
2022/11/29 03:08:11;;;;;;;;;7.00;3.40;;;;;9.82;72.64;100855.09;4880765;29;46780;-60
2022/11/29 03:10:55;;;;;;;;;5.20;2.80;;;;;9.82;72.91;100860.56;4880668;29;45394;-60
2022/11/29 03:13:54;;;;;;;;;4.40;2.80;;;;;9.81;72.38;100858.88;4881946;29;45381;-60
2022/11/29 03:16:36;;;;;;;;;6.20;6.20;;;;;9.57;72.98;100828.22;4882070;29;45556;-60
2022/11/29 03:19:22;;;;;;;;;4.80;4.80;;;;;9.78;72.45;100864.78;4881692;29;45508;-60
2022/11/29 03:21:55;;;;;;;;;4.00;3.20;;;;;9.52;72.65;100827.97;4864988;29;46052;-60
2022/11/29 03:24:43;;;;;;;;;2.80;2.80;;;;;9.80;72.13;100862.69;4880802;29;45354;-60
2022/11/29 03:27:20;;;;;;;;;3.80;3.80;;;;;9.74;72.44;100861.59;4881242;29;45647;-60
2022/11/29 03:29:49;;;;;;;;;6.80;6.00;;;;;9.79;72.73;100869.22;4879126;29;46289;-60
2022/11/29 03:32:27;;;;;;;;;2.00;2.00;;;;;9.74;71.90;100860.75;4880373;29;45531;-60
2022/11/29 03:35:08;;;;;;;;;6.20;5.60;;;;;9.82;72.01;100877.00;4864466;29;45390;-60
2022/11/29 03:37:45;;;;;;;;;7.20;5.20;;;;;9.56;71.75;100836.63;4882000;29;45381;-60
2022/11/29 03:40:16;;;;;;;;;4.80;4.80;;;;;9.72;72.22;100880.13;4806242;28;45452;-61
2022/11/29 03:42:47;;;;;;;;;3.20;3.20;;;;;9.75;72.90;100887.09;4827648;29;45439;-59
2022/11/29 03:45:44;;;;;;;;;3.60;3.60;;;;;9.74;72.39;100879.94;4844091;29;45338;-60
2022/11/29 03:48:19;;;;;;;;;2.80;2.80;;;;;9.72;72.43;100876.56;4827661;29;45918;-60
2022/11/29 03:50:50;;;;;;;;;7.60;7.00;;;;;9.84;71.99;100891.38;4811703;29;45815;-60
2022/11/29 03:53:21;;;;;;;;;3.80;3.00;;;;;9.89;72.80;100894.34;4842319;29;45629;-60
2022/11/29 03:55:53;;;;;;;;;5.80;3.40;;;;;9.90;71.92;100892.47;4827493;29;45923;-60
2022/11/29 03:58:48;;;;;;;;;6.80;6.00;;;;;9.92;72.75;100898.56;4844033;29;45323;-59
2022/11/29 04:01:38;;;;;;;;;5.60;5.60;;;;;9.94;71.86;100901.97;4856469;29;46153;-60
2022/11/29 04:04:34;;;;;;;;;7.80;6.40;;;;;9.94;71.79;100898.38;4881007;29;45433;-59
2022/11/29 04:07:17;;;;;;;;;6.60;4.80;;;;;9.98;71.98;100905.16;4880336;29;45316;-59
2022/11/29 04:09:52;;;;;;;;;4.40;4.40;;;;;9.14;72.15;100773.63;4881472;29;45466;-59
2022/11/29 04:12:21;;;;;;;;;4.00;4.00;;;;;9.94;72.23;100904.72;4879697;29;46896;-60
2022/11/29 04:15:40;;;;;;;;;7.60;7.60;;;;;9.94;71.58;100912.09;4881110;29;45323;-60
2022/11/29 04:18:21;;;;;;;;;7.80;4.00;;;;;9.78;72.02;100894.94;4840965;29;45474;-58
2022/11/29 04:20:52;;;;;;;;;4.00;3.40;;;;;9.92;72.11;100920.50;4862359;29;45465;-60
2022/11/29 04:23:26;;;;;;;;;4.80;4.40;;;;;9.92;71.96;100922.41;4880561;29;46460;-60
2022/11/29 04:26:49;;;;;;;;;5.60;5.60;;;;;9.90;71.30;100923.47;4880728;29;45495;-60
2022/11/29 04:29:26;;;;;;;;;4.00;4.00;;;;;9.55;71.90;100870.56;4840648;29;45411;-59
2022/11/29 04:32:13;;;;;;;;;7.60;6.00;;;;;9.93;71.45;100932.34;4841047;29;45522;-60
2022/11/29 04:35:21;;;;;;;;;7.20;5.60;;;;;9.89;71.60;100932.72;4857177;29;46163;-60
2022/11/29 04:38:01;;;;;;;;;5.20;3.20;;;;;9.82;71.94;100925.53;4848833;29;45542;-61
2022/11/29 04:40:36;;;;;;;;;6.60;3.00;;;;;9.60;71.71;100890.81;4885314;29;45470;-59
2022/11/29 04:43:43;;;;;;;;;5.60;5.20;;;;;9.83;71.29;100936.28;4900089;29;45528;-61
2022/11/29 04:46:11;;;;;;;;;8.20;6.00;;;;;9.55;71.15;100904.28;4885246;29;46532;-61
2022/11/29 04:48:45;;;;;;;;;3.00;3.00;;;;;9.52;71.31;100909.31;4899319;29;45327;-60
2022/11/29 04:51:27;;;;;;;;;4.00;4.00;;;;;9.79;71.38;100954.19;4882939;29;45480;-60
2022/11/29 04:54:30;;;;;;;;;7.40;7.00;;;;;9.80;71.56;100944.91;4884109;29;45424;-60
2022/11/29 04:57:21;;;;;;;;;6.60;4.80;;;;;9.83;71.46;100947.25;4899281;29;46022;-60
2022/11/29 04:59:51;;;;;;;;;7.60;7.60;;;;;9.83;71.50;100955.47;4869271;29;45292;-60
2022/11/29 05:02:38;;;;;;;;;5.60;3.20;;;;;9.83;71.73;100962.84;4882254;29;45391;-60
2022/11/29 05:05:22;;;;;;;;;5.60;5.60;;;;;9.83;71.76;100960.94;4899015;29;45461;-60
2022/11/29 05:07:53;;;;;;;;;6.00;6.00;;;;;9.73;71.38;100944.88;4899290;29;45497;-61
2022/11/29 05:10:33;;;;;;;;;9.00;7.60;;;;;9.81;71.28;100962.22;4882338;29;45519;-61
2022/11/29 05:13:35;;;;;;;;;7.00;6.00;;;;;9.81;72.13;100964.97;4899725;29;45503;-61
2022/11/29 05:16:14;;;;;;;;;7.80;7.80;;;;;9.34;72.01;100892.34;4899478;29;45879;-61
2022/11/29 05:19:02;;;;;;;;;7.00;7.00;;;;;9.73;71.24;100955.81;4898921;29;46150;-61
2022/11/29 05:21:49;;;;;;;;;10.40;6.60;;;;;9.81;71.84;100963.06;4867710;29;45330;-61
2022/11/29 05:24:34;;;;;;;;;8.20;7.00;;;;;9.79;71.87;100970.63;4898973;29;45374;-60
2022/11/29 05:27:17;;;;;;;;;7.40;7.40;;;;;9.76;72.44;100966.41;4899084;29;45344;-61
2022/11/29 05:29:55;;;;;;;;;8.40;7.00;;;;;9.75;71.88;100974.81;4881595;29;45444;-61
2022/11/29 05:32:43;;;;;;;;;8.40;7.40;;;;;9.69;71.77;100973.75;4881831;29;45267;-61
2022/11/29 05:35:36;;;;;;;;;12.80;11.00;;;;;9.74;72.11;100987.69;4883296;29;45387;-59
2022/11/29 05:38:14;;;;;;;;;9.20;8.40;;;;;9.46;72.34;100957.56;4889785;28;45889;-60
2022/11/29 05:40:42;;;;;;;;;7.00;6.60;;;;;9.64;72.14;100995.41;4854344;29;45659;-59
2022/11/29 05:43:20;;;;;;;;;8.80;6.40;;;;;9.55;72.33;100970.03;4862990;29;45419;-59
2022/11/29 05:45:54;;;;;;;;;9.20;8.20;;;;;9.77;71.82;101003.72;4863758;29;45169;-59
2022/11/29 05:48:44;;;;;;;;;8.40;7.00;;;;;9.78;71.93;101015.56;4847751;29;45407;-58
2022/11/29 05:51:28;;;;;;;;;12.60;7.60;;;;;9.80;71.97;101012.59;4864394;29;45660;-59
2022/11/29 05:54:05;;;;;;;;;8.00;8.00;;;;;9.69;72.25;100989.31;4879516;29;45648;-59
2022/11/29 05:56:35;;;;;;;;;9.00;9.00;;;;;9.80;71.95;101018.94;4880033;29;45363;-59
2022/11/29 05:59:08;;;;;;;;;8.00;8.00;;;;;9.83;71.97;101015.78;4879900;29;45656;-59
2022/11/29 06:01:41;;;;;;;;;8.60;7.80;;;;;9.64;71.45;100987.19;4855939;29;45473;-59
2022/11/29 06:04:15;;;;;;;;;9.40;9.00;;;;;9.73;71.49;101012.56;4882064;29;45420;-59
2022/11/29 06:06:47;;;;;;;;;9.00;9.00;;;;;9.81;71.18;101031.59;4881876;29;45352;-57
2022/11/29 06:09:27;;;;;;;;;8.00;8.00;;;;;9.82;71.74;101025.06;4898689;29;45471;-58
2022/11/29 06:12:05;;;;;;;;;11.40;9.20;;;;;9.83;71.15;101034.13;4898343;29;46948;-59
2022/11/29 06:15:09;;;;;;;;;13.20;12.60;;;;;9.85;71.47;101030.16;4881866;29;45424;-59
2022/11/29 06:17:37;;;;;;;;;12.40;9.80;;;;;9.79;71.59;101033.69;4901892;29;45390;-59
2022/11/29 06:20:32;;;;;;;;;12.00;10.20;;;;;9.75;71.97;101030.50;4902274;29;45370;-59
2022/11/29 06:23:11;;;;;;;;;12.00;9.00;;;;;9.71;71.59;101022.88;4884531;29;45630;-58
2022/11/29 06:25:57;;;;;;;;;10.80;10.00;;;;;9.79;71.11;101049.28;4885432;29;45374;-58
2022/11/29 06:28:26;;;;;;;;;8.60;7.80;;;;;9.78;71.09;101045.72;4883950;29;45183;-59
2022/11/29 06:30:59;;;;;;;;;8.40;7.40;;;;;9.79;71.32;101047.41;4902034;29;45510;-58
2022/11/29 06:33:30;;;;;;;;;8.00;8.00;;;;;9.79;70.28;101041.06;4901381;29;46609;-59
2022/11/29 06:36:13;;;;;;;;;15.00;12.00;;;;;9.82;70.46;101044.25;4901306;29;45405;-59
2022/11/29 06:38:39;;;;;;;;;11.00;10.00;;;;;9.86;70.50;101048.28;4850515;29;45400;-58
2022/11/29 06:41:04;;;;;;;;;13.25;12.75;;;;;9.86;70.48;101055.66;4882551;29;45378;-56
2022/11/29 06:43:30;;;;;;;;;9.00;9.00;;;;;9.81;71.20;101048.03;4882600;29;45957;-57
2022/11/29 06:46:04;;;;;;;;;10.25;10.25;;;;;9.10;71.54;100951.16;4850077;29;45465;-58
2022/11/29 06:48:37;;;;;;;;;20.00;16.20;;;;;9.50;72.15;101019.13;4850599;29;45394;-59
2022/11/29 06:51:16;;;;;;;;;18.20;13.20;;;;;9.74;71.58;101066.31;4865848;29;45452;-58
2022/11/29 06:53:48;;;;;;;;;12.80;12.80;;;;;9.77;71.45;101066.78;4866817;29;46578;-58
2022/11/29 06:56:38;;;;;;;;;10.00;10.00;;;;;9.54;71.06;101045.09;4882033;29;45690;-56
2022/11/29 06:59:25;;;;;;;;;12.40;10.40;;;;;9.65;71.70;101070.28;4850205;29;45427;-60
2022/11/29 07:01:54;;;;;;;;;16.00;13.20;;;;;9.55;71.66;101054.16;4893274;29;45412;-60
2022/11/29 07:04:34;;;;;;;;;13.80;12.80;;;;;9.60;72.13;101071.69;4868207;29;46715;-59
2022/11/29 07:06:59;;;;;;;;;12.20;10.60;;;;;9.43;71.32;101037.38;4882386;29;45404;-58
2022/11/29 07:09:27;;;;;;;;;12.00;8.25;;;;;9.65;71.83;101083.97;4900883;29;45409;-57
2022/11/29 07:11:53;;;;;;;;;15.40;13.60;;;;;9.63;71.92;101093.25;4868599;29;45363;-58
2022/11/29 07:14:19;;;;;;;;;13.00;10.25;;;;;9.60;71.40;101081.81;4900807;29;45386;-60
2022/11/29 07:16:54;;;;;;;;;10.50;10.50;;;;;9.31;72.45;101046.16;4900762;29;45343;-60
2022/11/29 07:19:58;;;;;;;;;13.60;10.20;;;;;9.32;71.74;101049.72;4884770;29;45376;-59
2022/11/29 07:22:51;;;;;;;;;11.20;9.20;;;;;9.57;71.31;101096.78;4841805;29;45547;-58
2022/11/29 07:25:24;;;;;;;;;11.00;11.00;;;;;9.15;71.30;101025.34;4826324;29;48277;-59
2022/11/29 07:28:05;;;;;;;;;12.60;12.20;;;;;9.56;71.27;101097.78;4866387;29;45373;-58
2022/11/29 07:30:39;;;;;;;;;12.60;9.00;;;;;9.56;71.06;101097.78;4900548;29;45335;-59
2022/11/29 07:33:19;;;;;;;;;12.60;12.60;;;;;9.58;71.58;101098.47;4900805;29;45306;-59
2022/11/29 07:36:02;;;;;;;;;12.60;8.20;;;;;9.37;71.51;101055.47;4884838;29;46044;-58
2022/11/29 07:38:36;;;;;;;;;10.00;10.00;;;;;9.60;71.42;101093.63;4871419;28;45271;-57
2022/11/29 07:41:19;;;;;;;;;13.40;11.60;;;;;9.52;71.71;101098.38;4900214;29;45481;-58
2022/11/29 07:43:55;;;;;;;;;13.80;9.40;;;;;9.58;71.11;101103.09;4900182;29;45386;-56
2022/11/29 07:46:21;;;;;;;;;17.00;13.60;;;;;9.62;71.07;101105.22;4883223;29;46509;-60
2022/11/29 07:48:46;;;;;;;;;15.25;15.00;;;;;9.39;71.85;101066.25;4899886;29;45508;-61
2022/11/29 07:51:12;;;;;;;;;15.00;15.00;;;;;9.66;71.46;101102.94;4900302;29;45327;-60
2022/11/29 07:53:40;;;;;;;;;11.25;11.25;;;;;9.44;71.51;101082.94;4899933;29;45517;-59
2022/11/29 07:56:06;;;;;;;;;14.20;12.80;;;;;9.66;70.87;101119.38;4900266;29;46138;-61
2022/11/29 07:58:31;;;;;;;;;11.75;10.75;;;;;9.72;70.61;101115.84;4900000;29;45564;-59
2022/11/29 08:00:57;;;;;;;;;15.00;13.25;;;;;9.66;70.95;101110.34;4900088;29;45297;-58
2022/11/29 08:03:22;;;;;;;;;12.75;12.00;;;;;9.70;71.85;101120.69;4900358;29;45308;-60
2022/11/29 08:05:48;;;;;;;;;13.00;12.75;;;;;9.73;70.95;101124.94;4899645;29;46085;-59
2022/11/29 08:08:13;;;;;;;;;15.75;14.00;;;;;9.28;71.55;101045.72;4899934;29;45522;-60
2022/11/29 08:10:39;;;;;;;;;16.75;15.00;;;;;9.72;70.52;101120.50;4899846;29;45381;-59
2022/11/29 08:13:04;;;;;;;;;16.25;15.75;;;;;9.74;71.33;101124.75;4900131;29;45586;-58
2022/11/29 08:15:30;;;;;;;;;18.00;18.00;;;;;9.65;71.04;101122.34;4900067;29;46262;-58
2022/11/29 08:17:55;;;;;;;;;19.00;18.00;;;;;9.61;71.71;101117.25;4899851;29;45709;-59
2022/11/29 08:20:21;;;;;;;;;21.75;18.50;;;;;9.62;72.20;101116.19;4883064;29;45478;-57
2022/11/29 08:22:58;;;;;;;;;22.00;21.00;;;;;9.76;71.77;101135.50;4900156;29;45441;-61
2022/11/29 08:25:28;;;;;;;;;31.20;29.00;;;;;9.70;71.69;101130.81;4899680;29;45319;-59
2022/11/29 08:27:54;;;;;;;;;24.80;21.60;;;;;9.59;71.32;101107.50;4883048;29;45486;-59
2022/11/29 08:30:22;;;;;;;;;22.50;20.25;;;;;9.76;72.42;101141.84;4899622;29;45321;-58
2022/11/29 08:32:48;;;;;;;;;24.40;21.00;;;;;9.54;71.59;101110.84;4882804;29;45524;-59
2022/11/29 08:35:15;;;;;;;;;26.00;23.40;;;;;9.70;72.60;101147.25;4899413;29;46143;-60
2022/11/29 08:37:40;;;;;;;;;24.80;20.20;;;;;9.67;72.72;101148.50;4882376;29;45750;-59
2022/11/29 08:40:07;;;;;;;;;19.25;19.25;;;;;9.66;72.20;101152.28;4849225;28;45372;-58
2022/11/29 08:42:32;;;;;;;;;22.00;19.20;;;;;9.60;72.72;101158.53;4861827;29;45369;-59
2022/11/29 08:44:58;;;;;;;;;25.50;23.75;;;;;9.57;73.15;101165.28;4861455;29;45945;-60
2022/11/29 08:47:35;;;;;;;;;28.25;26.50;;;;;9.50;72.22;101172.56;4861718;29;45551;-56
2022/11/29 08:50:07;;;;;;;;;32.00;25.80;;;;;9.48;72.83;101177.41;4846566;29;45493;-59
2022/11/29 08:55:19;;;;;;;;;33.20;28.80;;;;;9.50;73.36;101186.25;4847022;29;45557;-59
2022/11/29 08:57:45;;;;;;;;;33.20;28.60;;;;;9.47;72.30;101179.31;4845124;29;45407;-60
2022/11/29 09:00:11;;;;;;;;;39.00;33.20;;;;;9.52;72.91;101200.63;4844600;29;45407;-60
2022/11/29 09:02:37;;;;;;;;;30.60;28.60;;;;;9.44;72.27;101200.75;4889651;29;45407;-60
2022/11/29 09:05:03;;;;;;;;;31.00;24.50;;;;;9.43;72.33;101207.25;4898877;29;46156;-59
2022/11/29 09:07:29;;;;;;;;;25.40;22.40;;;;;9.16;71.86;101165.84;4898811;29;45371;-57
2022/11/29 09:09:54;;;;;;;;;23.00;20.75;;;;;9.03;72.34;101175.59;4899407;29;45435;-57
2022/11/29 09:12:20;;;;;;;;;26.00;23.00;;;;;9.31;71.99;101210.53;4898968;29;45297;-59
2022/11/29 09:14:45;;;;;;;;;18.00;15.00;;;;;9.31;73.06;101209.66;4898810;29;45673;-58
2022/11/29 09:17:11;;;;;;;;;18.50;17.00;;;;;9.28;73.12;101219.09;4898500;29;45254;-60
2022/11/29 09:19:36;;;;;;;;;20.00;19.50;;;;;9.29;72.43;101217.22;4898964;29;45299;-60
2022/11/29 09:22:02;;;;;;;;;30.25;22.00;;;;;9.36;72.27;101224.47;4899130;29;45506;-60
2022/11/29 09:24:27;;;;;;;;;23.00;19.75;;;;;9.28;72.18;101235.53;4897775;29;46251;-61
2022/11/29 09:26:53;;;;;;;;;33.25;27.25;;;;;9.22;71.74;101206.19;4898867;29;45279;-59
2022/11/29 09:29:19;;;;;;;;;24.50;20.00;;;;;9.48;72.01;101244.03;4875584;29;45643;-59
2022/11/29 09:31:45;;;;;;;;;34.75;24.75;;;;;9.55;71.80;101235.03;4867175;29;45571;-58
2022/11/29 09:34:14;;;;;;;;;23.75;21.00;;;;;9.52;71.42;101249.09;4876323;29;47018;-60
2022/11/29 09:36:40;;;;;;;;;30.20;20.20;;;;;9.53;70.74;101246.19;4852912;29;45416;-60
2022/11/29 09:39:06;;;;;;;;;28.75;23.00;;;;;9.46;70.62;101229.63;4879430;28;45530;-60
2022/11/29 09:42:05;;;;;;;;;23.20;20.20;;;;;9.61;70.82;101251.53;4887088;29;45687;-59
2022/11/29 09:44:55;;;;;;;;;28.40;22.80;;;;;9.57;70.64;101255.72;4878026;29;45450;-58
2022/11/29 09:47:24;;;;;;;;;23.00;20.20;;;;;9.43;71.52;101218.22;4877680;29;45320;-59
2022/11/29 09:50:26;;;;;;;;;24.00;24.00;;;;;9.72;70.78;101261.13;4876947;29;45498;-60
2022/11/29 09:53:08;;;;;;;;;25.80;23.20;;;;;9.65;70.20;101249.25;4859854;29;45482;-60
2022/11/29 09:55:52;;;;;;;;;21.40;18.40;;;;;9.69;70.61;101272.50;4858684;29;46486;-60
2022/11/29 09:58:20;;;;;;;;;22.80;18.80;;;;;9.72;70.41;101271.28;4858276;29;45694;-57
2022/11/29 10:00:58;;;;;;;;;21.60;18.00;;;;;9.73;70.49;101272.97;4871002;29;45318;-59
2022/11/29 10:03:39;;;;;;;;;26.20;22.80;;;;;9.72;69.27;101283.06;4877519;29;45505;-59
2022/11/29 10:06:10;;;;;;;;;30.00;24.40;;;;;9.64;70.14;101285.94;4846580;29;45482;-59
2022/11/29 10:08:42;;;;;;;;;24.80;22.40;;;;;9.08;70.19;101211.47;4877236;29;45429;-60
2022/11/29 10:11:19;;;;;;;;;33.40;26.20;;;;;9.62;70.42;101290.75;4877595;29;45387;-60
2022/11/29 10:13:48;;;;;;;;;27.60;21.60;;;;;9.65;70.30;101295.00;4847117;29;45444;-58
2022/11/29 10:16:38;;;;;;;;;24.00;20.40;;;;;9.62;69.55;101297.06;4877444;29;46569;-59
2022/11/29 10:19:18;;;;;;;;;22.80;19.80;;;;;9.69;70.46;101294.44;4863245;29;45479;-61
2022/11/29 10:21:45;;;;;;;;;22.80;21.60;;;;;9.69;70.10;101296.31;4862500;29;45667;-60
2022/11/29 10:24:16;;;;;;;;;25.20;21.40;;;;;9.72;69.64;101287.72;4890815;29;45571;-60
2022/11/29 10:26:42;;;;;;;;;18.40;16.00;;;;;9.72;69.25;101291.28;4879690;29;45672;-59
2022/11/29 10:29:13;;;;;;;;;24.00;19.50;;;;;9.74;69.35;101296.59;4880028;29;45558;-60
2022/11/29 10:31:42;;;;;;;;;21.20;19.60;;;;;9.09;69.16;101204.97;4879119;29;45616;-61
2022/11/29 10:34:16;;;;;;;;;25.00;20.00;;;;;9.70;70.15;101300.75;4872186;29;46015;-60
2022/11/29 10:36:46;;;;;;;;;24.40;20.40;;;;;9.72;69.30;101301.44;4875833;29;46629;-60
2022/11/29 10:39:40;;;;;;;;;24.60;21.60;;;;;9.69;69.52;101293.56;4812478;28;45414;-61
2022/11/29 10:45:04;;;;;;;;;17.20;14.00;;;;;9.80;69.55;101312.25;4864296;29;45434;-58
2022/11/29 10:47:31;;;;;;;;;26.00;21.40;;;;;9.83;69.08;101309.13;4862573;29;46394;-62
2022/11/29 10:49:57;;;;;;;;;19.75;15.75;;;;;9.78;68.14;101292.44;4858910;29;45665;-60
2022/11/29 10:52:22;;;;;;;;;19.75;14.75;;;;;9.72;69.15;101287.72;4859330;29;45413;-59
2022/11/29 10:54:49;;;;;;;;;20.50;18.25;;;;;9.59;69.64;101261.84;4857682;29;45835;-60
2022/11/29 10:57:16;;;;;;;;;24.60;20.20;;;;;9.65;69.16;101264.88;4857592;29;45710;-59
2022/11/29 10:59:58;;;;;;;;;26.80;22.00;;;;;9.94;69.28;101298.72;4850275;29;45324;-60
2022/11/29 11:02:23;;;;;;;;;27.60;21.80;;;;;10.02;68.98;101309.56;4869732;29;45411;-60
2022/11/29 11:04:49;;;;;;;;;23.25;22.00;;;;;10.02;68.82;101301.31;4882675;29;45564;-59
2022/11/29 11:07:34;;;;;;;;;28.00;24.75;;;;;10.04;68.73;101313.81;4889559;29;45475;-59
2022/11/29 11:10:01;;;;;;;;;25.60;23.40;;;;;10.07;68.46;101308.97;4863247;29;45477;-58
2022/11/29 11:12:31;;;;;;;;;23.60;19.60;;;;;10.02;69.04;101298.59;4863997;29;45365;-60
2022/11/29 11:15:36;;;;;;;;;33.40;28.40;;;;;9.96;68.98;101308.44;4880544;29;45509;-56
2022/11/29 11:18:04;;;;;;;;;25.20;21.00;;;;;9.71;69.19;101258.63;4785366;29;45989;-58
2022/11/29 11:20:36;;;;;;;;;34.20;26.80;;;;;9.91;69.05;101299.94;4770217;29;45458;-58
2022/11/29 11:23:25;;;;;;;;;37.00;32.80;;;;;10.03;69.31;101306.63;4835032;29;45635;-60
2022/11/29 11:25:56;;;;;;;;;31.60;26.00;;;;;10.07;68.62;101308.97;4880330;29;45277;-60
2022/11/29 11:28:23;;;;;;;;;33.60;27.40;;;;;10.10;68.65;101316.81;4848058;29;45477;-61
2022/11/29 11:30:54;;;;;;;;;32.40;29.00;;;;;10.04;68.51;101304.75;4846981;29;45386;-60
2022/11/29 11:33:30;;;;;;;;;33.20;25.60;;;;;10.06;68.53;101304.53;4880225;29;45346;-58
2022/11/29 11:36:04;;;;;;;;;25.20;24.60;;;;;10.04;68.71;101307.47;4869391;29;45439;-59
2022/11/29 11:38:30;;;;;;;;;25.80;24.20;;;;;10.05;68.45;101306.44;4898570;29;45784;-60
2022/11/29 11:44:23;;;;;;;;;28.60;23.60;;;;;9.88;68.38;101290.22;4864553;29;45595;-60
2022/11/29 11:46:49;;;;;;;;;28.20;24.00;;;;;9.89;69.16;101280.94;4882228;29;45421;-59
2022/11/29 11:50:09;;;;;;;;;29.50;27.25;;;;;10.08;68.53;101311.50;4866050;29;45782;-60
2022/11/29 11:52:44;;;;;;;;;26.40;25.60;;;;;10.08;67.90;101314.25;4839847;29;45489;-59
2022/11/29 11:55:30;;;;;;;;;22.40;21.20;;;;;9.92;68.07;101273.38;4889804;29;45404;-60
2022/11/29 11:58:11;;;;;;;;;30.40;26.00;;;;;9.71;67.57;101233.94;4900279;29;45479;-60
2022/11/29 12:00:39;;;;;;;;;41.00;32.80;;;;;9.91;67.36;101267.03;4898168;29;46677;-61
2022/11/29 12:03:05;;;;;;;;;31.20;27.60;;;;;10.15;67.47;101308.84;4899730;29;45382;-60
2022/11/29 12:05:30;;;;;;;;;38.20;32.80;;;;;10.19;67.49;101298.34;4866853;29;45437;-59
2022/11/29 12:07:58;;;;;;;;;32.00;31.00;;;;;9.66;67.69;101209.00;4899980;29;45449;-61